createdAt,value
2023-04-09T00:00:26.939Z,19.49
2023-04-09T00:02:54.613Z,19.66
2023-04-09T00:05:21.090Z,19.85
2023-04-09T00:07:47.530Z,20.52
2023-04-09T00:10:14.005Z,21.12
2023-04-09T00:12:40.427Z,21.21
2023-04-09T00:15:07.507Z,21.29
2023-04-09T00:17:35.029Z,21.75
2023-04-09T00:20:01.537Z,21.78
2023-04-09T00:22:27.954Z,22.04
2023-04-09T00:24:54.580Z,22.20
2023-04-09T00:27:21.027Z,22.22
2023-04-09T00:29:47.460Z,22.13
2023-04-09T00:32:13.913Z,22.00
2023-04-09T00:34:40.367Z,21.88
2023-04-09T00:37:06.829Z,22.47
2023-04-09T00:39:33.262Z,21.91
2023-04-09T00:41:59.993Z,22.75
2023-04-09T00:44:26.416Z,22.35
2023-04-09T00:46:52.861Z,22.03
2023-04-09T00:49:19.243Z,22.83
2023-04-09T00:51:45.637Z,22.24
2023-04-09T00:54:12.088Z,23.73
2023-04-09T00:56:38.490Z,22.90
2023-04-09T00:59:04.929Z,22.54
2023-04-09T01:01:31.443Z,22.93
2023-04-09T01:03:57.921Z,22.42
2023-04-09T01:06:24.333Z,22.90
2023-04-09T01:08:51.176Z,23.15
2023-04-09T01:11:17.795Z,23.28
2023-04-09T01:13:44.301Z,22.97
2023-04-09T01:16:10.712Z,23.27
2023-04-09T01:18:37.108Z,23.57
2023-04-09T01:21:03.520Z,23.60
2023-04-09T01:23:30.300Z,23.34
2023-04-09T01:25:56.720Z,23.03
2023-04-09T01:28:23.135Z,23.34
2023-04-09T01:30:49.581Z,23.72
2023-04-09T01:33:16.002Z,23.76
2023-04-09T01:35:42.448Z,23.92
2023-04-09T01:38:08.936Z,23.29
2023-04-09T01:40:35.362Z,23.45
2023-04-09T01:43:01.770Z,23.12
2023-04-09T01:45:28.197Z,22.96
2023-04-09T01:47:54.632Z,23.26
2023-04-09T01:50:21.075Z,23.09
2023-04-09T01:52:47.513Z,23.34
2023-04-09T01:55:14.042Z,23.13
2023-04-09T01:57:40.477Z,23.17
2023-04-09T02:00:06.920Z,23.98
2023-04-09T02:02:33.470Z,23.68
2023-04-09T02:04:59.983Z,23.41
2023-04-09T02:07:26.413Z,23.86
2023-04-09T02:09:52.839Z,23.86
2023-04-09T02:12:19.258Z,24.12
2023-04-09T02:14:45.693Z,24.81
2023-04-09T02:17:12.138Z,24.01
2023-04-09T02:19:38.550Z,23.41
2023-04-09T02:22:05.023Z,24.22
2023-04-09T02:24:31.443Z,23.21
2023-04-09T02:26:57.869Z,23.54
2023-04-09T02:29:24.354Z,24.41
2023-04-09T02:31:50.781Z,23.91
2023-04-09T02:34:17.182Z,24.56
2023-04-09T02:36:43.613Z,23.41
2023-04-09T02:39:11.181Z,24.52
2023-04-09T02:41:37.757Z,23.29
2023-04-09T02:44:04.160Z,24.19
2023-04-09T02:46:30.633Z,24.96
2023-04-09T02:48:57.058Z,24.16
2023-04-09T02:51:23.476Z,23.65
2023-04-09T02:53:49.898Z,23.59
2023-04-09T02:56:16.321Z,23.85
2023-04-09T02:58:42.733Z,23.21
2023-04-09T03:01:09.151Z,23.62
2023-04-09T03:03:35.658Z,23.21
2023-04-09T03:06:02.112Z,22.63
2023-04-09T03:08:28.522Z,22.17
2023-04-09T03:10:54.953Z,21.95
2023-04-09T03:13:21.367Z,22.93
2023-04-09T03:15:49.034Z,21.51
2023-04-09T03:18:16.577Z,21.49
2023-04-09T03:20:44.168Z,21.45
2023-04-09T03:23:12.762Z,20.44
2023-04-09T03:25:39.183Z,20.68
2023-04-09T03:28:05.653Z,20.98
2023-04-09T03:30:32.049Z,20.97
2023-04-09T03:32:58.481Z,20.78
2023-04-09T03:35:24.948Z,19.60
2023-04-09T03:37:51.408Z,19.54
2023-04-09T03:40:17.812Z,20.45
2023-04-09T03:42:44.274Z,20.38
2023-04-09T03:45:10.677Z,19.55
2023-04-09T03:47:37.180Z,19.45
2023-04-09T03:50:04.215Z,18.83
2023-04-09T03:52:30.824Z,18.71
2023-04-09T03:54:57.395Z,19.67
2023-04-09T03:57:23.817Z,18.99
2023-04-09T03:59:50.230Z,19.31
2023-04-09T04:02:16.713Z,19.48
2023-04-09T04:04:43.236Z,19.43
2023-04-09T04:07:09.683Z,20.05
2023-04-09T04:09:36.102Z,21.51
2023-04-09T04:12:02.522Z,19.37
2023-04-09T04:14:28.910Z,19.08
2023-04-09T04:16:55.349Z,19.62
2023-04-09T04:19:21.780Z,22.12
2023-04-09T04:21:48.196Z,20.28
2023-04-09T04:24:14.596Z,18.54
2023-04-09T04:26:41.048Z,18.99
2023-04-09T04:29:07.495Z,18.14
2023-04-09T04:31:33.972Z,18.67
2023-04-09T04:34:00.430Z,17.57
2023-04-09T04:36:26.926Z,17.51
2023-04-09T04:38:53.542Z,17.26
2023-04-09T04:41:20.572Z,17.60
2023-04-09T04:43:46.984Z,17.61
2023-04-09T04:46:13.421Z,16.64
2023-04-09T04:48:39.864Z,16.38
2023-04-09T04:51:06.970Z,17.07
2023-04-09T04:53:34.564Z,16.80
2023-04-09T04:56:01.007Z,16.56
2023-04-09T04:58:27.694Z,16.33
2023-04-09T05:00:54.193Z,15.47
2023-04-09T05:03:20.715Z,15.69
2023-04-09T05:05:47.232Z,15.62
2023-04-09T05:08:13.729Z,14.62
2023-04-09T05:10:40.134Z,14.52
2023-04-09T05:13:06.535Z,14.40
2023-04-09T05:15:32.956Z,15.45
2023-04-09T05:17:59.384Z,15.38
2023-04-09T05:20:25.858Z,15.18
2023-04-09T05:22:52.362Z,15.87
2023-04-09T05:25:18.812Z,16.13
2023-04-09T05:27:45.234Z,15.79
2023-04-09T05:30:11.669Z,14.91
2023-04-09T05:32:38.139Z,14.51
2023-04-09T05:35:04.611Z,14.27
2023-04-09T05:37:31.042Z,14.85
2023-04-09T05:39:57.469Z,15.48
2023-04-09T05:42:23.880Z,16.33
2023-04-09T05:44:50.272Z,20.41
2023-04-09T05:47:16.701Z,17.54
2023-04-09T05:49:43.132Z,21.21
2023-04-09T05:52:09.550Z,40.05
2023-04-09T05:54:35.984Z,40.27
2023-04-09T05:57:02.436Z,24.32
2023-04-09T05:59:29.438Z,16.41
2023-04-09T06:01:55.882Z,17.02
2023-04-09T06:04:22.674Z,16.66
2023-04-09T06:06:49.261Z,19.05
2023-04-09T06:09:15.665Z,19.02
2023-04-09T06:11:42.074Z,19.66
2023-04-09T06:14:08.513Z,21.02
2023-04-09T06:16:34.917Z,21.45
2023-04-09T06:19:01.319Z,21.06
2023-04-09T06:21:27.767Z,22.26
2023-04-09T06:23:54.474Z,22.61
2023-04-09T06:26:21.200Z,21.52
2023-04-09T06:28:47.623Z,20.71
2023-04-09T06:31:14.099Z,21.88
2023-04-09T06:33:40.583Z,22.47
2023-04-09T06:36:07.110Z,22.15
2023-04-09T06:38:33.602Z,21.88
2023-04-09T06:41:00.006Z,22.77
2023-04-09T06:43:26.413Z,21.97
2023-04-09T06:45:52.815Z,22.64
2023-04-09T06:48:19.239Z,22.12
2023-04-09T06:50:45.670Z,23.48
2023-04-09T06:53:12.123Z,22.44
2023-04-09T06:55:38.571Z,23.88
2023-04-09T06:58:05.030Z,24.10
2023-04-09T07:00:31.441Z,23.70
2023-04-09T07:02:59.027Z,24.47
2023-04-09T07:05:25.618Z,25.56
2023-04-09T07:07:52.073Z,26.75
2023-04-09T07:10:18.478Z,25.07
2023-04-09T07:12:44.908Z,25.69
2023-04-09T07:15:11.406Z,27.84
2023-04-09T07:17:37.904Z,25.28
2023-04-09T07:20:04.432Z,28.92
2023-04-09T07:22:30.934Z,26.80
2023-04-09T07:24:57.358Z,27.54
2023-04-09T07:27:23.786Z,26.79
2023-04-09T07:29:50.207Z,26.69
2023-04-09T07:32:16.641Z,26.52
2023-04-09T07:34:43.112Z,26.34
2023-04-09T07:37:09.520Z,26.34
2023-04-09T07:39:35.968Z,26.64
2023-04-09T07:42:02.357Z,27.73
2023-04-09T07:44:28.789Z,27.23
2023-04-09T07:46:55.228Z,26.80
2023-04-09T07:49:21.833Z,27.49
2023-04-09T07:51:48.267Z,27.44
2023-04-09T07:54:14.684Z,27.03
2023-04-09T07:56:41.095Z,27.11
2023-04-09T07:59:07.544Z,27.60
2023-04-09T08:01:34.366Z,27.28
2023-04-09T08:04:00.967Z,26.48
2023-04-09T08:06:27.565Z,26.99
2023-04-09T08:08:54.240Z,26.49
2023-04-09T08:11:21.016Z,25.70
2023-04-09T08:13:47.495Z,27.03
2023-04-09T08:16:13.982Z,25.91
2023-04-09T08:18:40.435Z,25.10
2023-04-09T08:21:06.851Z,25.21
2023-04-09T08:23:33.254Z,26.63
2023-04-09T08:25:59.683Z,25.00
2023-04-09T08:28:26.453Z,26.21
2023-04-09T08:30:53.025Z,26.28
2023-04-09T08:33:19.650Z,25.71
2023-04-09T08:35:46.063Z,26.28
2023-04-09T08:38:12.488Z,25.75
2023-04-09T08:40:39.486Z,25.52
2023-04-09T08:43:05.907Z,24.72
2023-04-09T08:45:32.371Z,23.48
2023-04-09T08:47:58.903Z,22.86
2023-04-09T08:50:25.353Z,23.22
2023-04-09T08:52:51.752Z,24.41
2023-04-09T08:55:18.216Z,25.02
2023-04-09T08:57:44.689Z,24.55
2023-04-09T09:00:11.121Z,24.89
2023-04-09T09:02:37.595Z,24.05
2023-04-09T09:05:04.059Z,24.53
2023-04-09T09:07:30.473Z,24.63
2023-04-09T09:09:56.886Z,24.36
2023-04-09T09:12:23.896Z,24.22
2023-04-09T09:14:51.004Z,24.61
2023-04-09T09:17:17.472Z,24.18
2023-04-09T09:19:43.906Z,23.77
2023-04-09T09:22:10.307Z,23.18
2023-04-09T09:24:36.747Z,22.81
2023-04-09T09:27:03.246Z,23.40
2023-04-09T09:29:29.736Z,23.55
2023-04-09T09:31:56.247Z,23.67
2023-04-09T09:34:22.681Z,22.87
2023-04-09T09:36:49.127Z,24.06
2023-04-09T09:39:15.562Z,24.01
2023-04-09T09:41:41.991Z,22.66
2023-04-09T09:44:08.425Z,23.00
2023-04-09T09:46:35.007Z,22.41
2023-04-09T09:49:01.550Z,22.00
2023-04-09T09:51:27.992Z,22.46
2023-04-09T09:53:54.415Z,21.99
2023-04-09T09:56:20.914Z,21.88
2023-04-09T09:58:47.331Z,20.96
2023-04-09T10:01:13.746Z,20.83
2023-04-09T10:03:40.207Z,21.11
2023-04-09T10:06:06.612Z,20.94
2023-04-09T10:08:33.039Z,19.91
2023-04-09T10:10:59.553Z,20.38
2023-04-09T10:13:25.997Z,18.94
2023-04-09T10:15:52.468Z,18.62
2023-04-09T10:18:18.983Z,19.60
2023-04-09T10:20:45.409Z,18.44
2023-04-09T10:23:11.803Z,18.67
2023-04-09T10:25:38.236Z,19.22
2023-04-09T10:28:04.660Z,19.02
2023-04-09T10:30:31.109Z,17.88
2023-04-09T10:32:57.575Z,18.63
2023-04-09T10:35:24.008Z,19.06
2023-04-09T10:37:50.434Z,18.92
2023-04-09T10:40:16.858Z,18.45
2023-04-09T10:42:43.267Z,18.66
2023-04-09T10:45:10.581Z,17.76
2023-04-09T10:47:38.212Z,17.37
2023-04-09T10:50:05.779Z,16.78
2023-04-09T10:52:32.201Z,16.62
2023-04-09T10:54:58.601Z,15.74
2023-04-09T10:57:25.051Z,16.62
2023-04-09T10:59:53.184Z,16.18
2023-04-09T11:02:21.903Z,14.70
2023-04-09T11:04:48.468Z,14.62
2023-04-09T11:07:14.897Z,14.26
2023-04-09T11:09:41.332Z,14.18
2023-04-09T11:12:08.056Z,13.68
2023-04-09T11:14:34.669Z,12.94
2023-04-09T11:17:01.046Z,12.35
2023-04-09T11:19:27.467Z,13.49
2023-04-09T11:21:53.887Z,13.29
2023-04-09T11:24:20.321Z,14.02
2023-04-09T11:26:47.581Z,13.59
2023-04-09T11:29:13.972Z,13.35
2023-04-09T11:31:40.518Z,12.11
2023-04-09T11:34:06.960Z,12.74
2023-04-09T11:36:33.379Z,12.40
2023-04-09T11:38:59.781Z,11.47
2023-04-09T11:41:26.182Z,9.82
2023-04-09T11:43:52.586Z,10.08
2023-04-09T11:46:19.027Z,11.44
2023-04-09T11:48:45.474Z,11.76
2023-04-09T11:51:11.878Z,10.53
2023-04-09T11:53:38.289Z,10.02
2023-04-09T11:56:04.701Z,8.75
2023-04-09T11:58:31.143Z,6.59
2023-04-09T12:00:57.555Z,7.52
2023-04-09T12:03:24.200Z,7.13
2023-04-09T12:05:51.321Z,7.04
2023-04-09T12:08:18.586Z,6.74
2023-04-09T12:10:47.178Z,6.61
2023-04-09T12:13:13.678Z,6.26
2023-04-09T12:15:40.141Z,5.78
2023-04-09T12:18:06.563Z,5.60
2023-04-09T12:20:33.538Z,6.51
2023-04-09T12:22:59.935Z,6.16
2023-04-09T12:25:26.360Z,5.76
2023-04-09T12:27:52.766Z,5.31
2023-04-09T12:30:19.173Z,4.82
2023-04-09T12:32:45.653Z,4.79
2023-04-09T12:35:12.109Z,6.99
2023-04-09T12:37:38.516Z,5.65
2023-04-09T12:40:04.940Z,4.81
2023-04-09T12:42:31.394Z,5.29
2023-04-09T12:44:57.803Z,5.10
2023-04-09T12:47:24.221Z,5.51
2023-04-09T12:49:50.668Z,5.95
2023-04-09T12:52:17.083Z,6.00
2023-04-09T12:54:43.496Z,5.81
2023-04-09T12:57:09.908Z,5.65
2023-04-09T12:59:36.291Z,5.65
2023-04-09T13:02:02.834Z,5.86
2023-04-09T13:04:29.366Z,5.53
2023-04-09T13:06:56.690Z,5.20
2023-04-09T13:09:23.099Z,5.36
2023-04-09T13:11:49.504Z,5.26
2023-04-09T13:14:15.908Z,5.26
2023-04-09T13:16:42.393Z,4.92
2023-04-09T13:19:08.837Z,4.83
2023-04-09T13:21:35.220Z,4.94
2023-04-09T13:24:01.654Z,5.16
2023-04-09T13:26:28.108Z,4.73
2023-04-09T13:28:54.658Z,4.70
2023-04-09T13:31:21.221Z,4.39
2023-04-09T13:33:47.635Z,5.12
2023-04-09T13:36:14.082Z,5.84
2023-04-09T13:38:40.521Z,5.35
2023-04-09T13:41:06.945Z,5.60
2023-04-09T13:43:33.383Z,5.73
2023-04-09T13:45:59.836Z,5.58
2023-04-09T13:48:26.239Z,5.26
2023-04-09T13:50:52.656Z,5.46
2023-04-09T13:53:19.090Z,5.74
2023-04-09T13:55:45.567Z,5.44
2023-04-09T13:58:12.062Z,5.41
2023-04-09T14:00:38.526Z,5.57
2023-04-09T14:03:05.048Z,5.04
2023-04-09T14:05:31.506Z,4.95
2023-04-09T14:07:57.913Z,4.60
2023-04-09T14:10:24.336Z,4.99
2023-04-09T14:12:50.739Z,4.92
2023-04-09T14:15:17.169Z,4.88
2023-04-09T14:17:43.697Z,4.79
2023-04-09T14:20:10.151Z,5.35
2023-04-09T14:22:37.785Z,5.19
2023-04-09T14:25:04.377Z,4.43
2023-04-09T14:27:30.776Z,4.60
2023-04-09T14:29:57.241Z,4.81
2023-04-09T14:32:23.647Z,4.78
2023-04-09T14:34:50.081Z,4.96
2023-04-09T14:37:16.516Z,4.87
2023-04-09T14:39:42.909Z,4.83
2023-04-09T14:42:09.330Z,4.42
2023-04-09T14:44:35.731Z,4.14
2023-04-09T14:47:02.307Z,3.62
2023-04-09T14:49:29.136Z,4.08
2023-04-09T14:51:55.616Z,3.85
2023-04-09T14:54:22.013Z,3.86
2023-04-09T14:56:48.416Z,4.31
2023-04-09T14:59:15.745Z,4.76
2023-04-09T15:01:42.268Z,5.36
2023-04-09T15:04:08.911Z,5.26
2023-04-09T15:06:35.416Z,5.42
2023-04-09T15:09:01.825Z,5.41
2023-04-09T15:11:28.333Z,5.48
2023-04-09T15:13:54.765Z,5.82
2023-04-09T15:16:21.262Z,5.61
2023-04-09T15:18:47.854Z,5.62
2023-04-09T15:21:14.217Z,5.29
2023-04-09T15:23:40.620Z,5.18
2023-04-09T15:26:07.031Z,5.57
2023-04-09T15:28:33.422Z,5.53
2023-04-09T15:30:59.850Z,5.86
2023-04-09T15:33:26.977Z,6.43
2023-04-09T15:35:53.442Z,5.99
2023-04-09T15:38:19.866Z,6.84
2023-04-09T15:40:46.269Z,6.14
2023-04-09T15:43:12.662Z,6.20
2023-04-09T15:45:39.109Z,6.41
2023-04-09T15:48:05.639Z,6.59
2023-04-09T15:50:32.109Z,6.85
2023-04-09T15:52:58.545Z,6.94
2023-04-09T15:55:24.960Z,6.97
2023-04-09T15:57:51.342Z,7.20
2023-04-09T16:00:17.760Z,7.08
2023-04-09T16:02:44.164Z,7.66
2023-04-09T16:05:10.649Z,7.53
2023-04-09T16:07:38.183Z,7.37
2023-04-09T16:10:04.595Z,7.43
2023-04-09T16:12:31.043Z,7.49
2023-04-09T16:14:57.421Z,7.68
2023-04-09T16:17:23.848Z,7.67
2023-04-09T16:19:50.288Z,7.21
2023-04-09T16:22:16.818Z,7.82
2023-04-09T16:24:43.255Z,8.03
2023-04-09T16:27:09.669Z,8.04
2023-04-09T16:29:36.059Z,7.69
2023-04-09T16:32:02.572Z,7.56
2023-04-09T16:34:29.712Z,7.82
2023-04-09T16:36:56.109Z,7.74
2023-04-09T16:39:22.577Z,7.60
2023-04-09T16:41:48.982Z,7.54
2023-04-09T16:44:15.377Z,7.09
2023-04-09T16:46:41.808Z,7.02
2023-04-09T16:49:08.192Z,7.19
2023-04-09T16:51:34.601Z,7.11
2023-04-09T16:54:01.012Z,7.76
2023-04-09T16:56:27.415Z,7.38
2023-04-09T16:58:54.151Z,7.19
2023-04-09T17:01:21.103Z,7.65
2023-04-09T17:03:47.799Z,7.46
2023-04-09T17:06:14.280Z,8.19
2023-04-09T17:08:40.698Z,7.94
2023-04-09T17:11:07.141Z,7.44
2023-04-09T17:13:33.589Z,7.65
2023-04-09T17:15:59.976Z,8.25
2023-04-09T17:18:26.387Z,8.45
2023-04-09T17:20:52.786Z,8.51
2023-04-09T17:23:19.223Z,8.54
2023-04-09T17:25:45.656Z,8.57
2023-04-09T17:28:12.071Z,9.88
2023-04-09T17:30:38.570Z,13.88
2023-04-09T17:33:05.096Z,22.88
2023-04-09T17:35:31.599Z,29.02
2023-04-09T17:37:58.014Z,20.88
2023-04-09T17:40:24.432Z,15.24
2023-04-09T17:42:50.905Z,13.24
2023-04-09T17:45:17.364Z,10.81
2023-04-09T17:47:43.842Z,14.47
2023-04-09T17:50:10.316Z,18.19
2023-04-09T17:52:36.759Z,13.95
2023-04-09T17:55:03.202Z,20.83
2023-04-09T17:57:29.611Z,23.30
2023-04-09T17:59:56.029Z,20.52
2023-04-09T18:02:22.554Z,21.00
2023-04-09T18:04:49.173Z,26.86
2023-04-09T18:07:15.648Z,19.68
2023-04-09T18:09:42.091Z,12.65
2023-04-09T18:12:08.536Z,14.23
2023-04-09T18:14:34.936Z,13.52
2023-04-09T18:17:01.378Z,11.27
2023-04-09T18:19:27.811Z,10.04
2023-04-09T18:21:54.235Z,9.04
2023-04-09T18:24:20.661Z,9.04
2023-04-09T18:26:47.115Z,8.89
2023-04-09T18:29:13.528Z,8.74
2023-04-09T18:31:39.980Z,8.88
2023-04-09T18:34:06.397Z,8.84
2023-04-09T18:36:32.846Z,9.24
2023-04-09T18:38:59.269Z,8.88
2023-04-09T18:41:25.666Z,8.94
2023-04-09T18:43:52.102Z,8.41
2023-04-09T18:46:18.566Z,8.08
2023-04-09T18:48:45.093Z,8.97
2023-04-09T18:51:11.478Z,7.94
2023-04-09T18:53:37.878Z,8.06
2023-04-09T18:56:04.267Z,8.41
2023-04-09T18:58:30.691Z,8.79
2023-04-09T19:00:57.115Z,8.07
2023-04-09T19:03:23.865Z,8.28
2023-04-09T19:05:50.624Z,8.66
2023-04-09T19:08:17.029Z,8.09
2023-04-09T19:10:43.576Z,7.91
2023-04-09T19:13:09.996Z,7.96
2023-04-09T19:15:36.462Z,9.28
2023-04-09T19:18:02.934Z,8.92
2023-04-09T19:20:29.375Z,8.68
2023-04-09T19:22:55.786Z,8.63
2023-04-09T19:25:22.273Z,8.52
2023-04-09T19:27:48.747Z,7.59
2023-04-09T19:30:15.147Z,8.29
2023-04-09T19:32:41.575Z,8.22
2023-04-09T19:35:08.027Z,8.06
2023-04-09T19:37:34.519Z,8.32
2023-04-09T19:40:01.061Z,8.08
2023-04-09T19:42:27.470Z,7.88
2023-04-09T19:44:53.858Z,8.15
2023-04-09T19:47:20.344Z,7.96
2023-04-09T19:49:46.835Z,8.38
2023-04-09T19:52:13.215Z,9.11
2023-04-09T19:54:39.619Z,8.54
2023-04-09T19:57:06.013Z,8.09
2023-04-09T19:59:32.409Z,8.41
2023-04-09T20:01:59.003Z,7.96
2023-04-09T20:04:25.681Z,8.41
2023-04-09T20:06:52.230Z,8.49
2023-04-09T20:09:18.800Z,8.15
2023-04-09T20:11:45.195Z,7.93
2023-04-09T20:14:11.626Z,7.98
2023-04-09T20:16:38.312Z,8.02
2023-04-09T20:19:04.798Z,7.56
2023-04-09T20:21:31.194Z,7.85
2023-04-09T20:23:57.640Z,7.82
2023-04-09T20:26:24.102Z,7.61
2023-04-09T20:28:50.528Z,8.00
2023-04-09T20:31:17.021Z,7.72
2023-04-09T20:33:43.529Z,8.05
2023-04-09T20:36:09.964Z,8.45
2023-04-09T20:38:36.363Z,8.31
2023-04-09T20:41:02.808Z,7.81
2023-04-09T20:43:29.236Z,8.09
2023-04-09T20:45:55.678Z,8.27
2023-04-09T20:48:22.147Z,8.08
2023-04-09T20:50:48.545Z,7.84
2023-04-09T20:53:15.014Z,7.69
2023-04-09T20:55:41.398Z,7.96
2023-04-09T20:58:07.822Z,8.02
2023-04-09T21:00:34.240Z,8.21
2023-04-09T21:03:00.911Z,7.66
2023-04-09T21:05:27.403Z,7.53
2023-04-09T21:07:53.936Z,7.95
2023-04-09T21:10:20.462Z,7.98
2023-04-09T21:12:46.940Z,7.68
2023-04-09T21:15:13.363Z,7.70
2023-04-09T21:17:39.805Z,7.51
2023-04-09T21:20:06.215Z,7.86
2023-04-09T21:22:32.614Z,7.97
2023-04-09T21:24:59.012Z,7.79
2023-04-09T21:27:25.465Z,7.47
2023-04-09T21:29:51.885Z,7.86
2023-04-09T21:32:18.357Z,7.40
2023-04-09T21:34:44.750Z,7.81
2023-04-09T21:37:11.123Z,7.59
2023-04-09T21:39:37.553Z,7.69
2023-04-09T21:42:03.938Z,7.58
2023-04-09T21:44:30.355Z,7.37
2023-04-09T21:46:56.762Z,7.74
2023-04-09T21:49:23.157Z,7.65
2023-04-09T21:51:49.579Z,7.34
2023-04-09T21:54:15.985Z,7.71
2023-04-09T21:56:42.372Z,7.28
2023-04-09T21:59:08.783Z,7.41
2023-04-09T22:01:35.452Z,7.92
2023-04-09T22:04:02.091Z,7.34
2023-04-09T22:06:28.764Z,6.98
2023-04-09T22:08:57.057Z,7.35
2023-04-09T22:11:23.869Z,7.29
2023-04-09T22:13:50.428Z,7.30
2023-04-09T22:16:16.926Z,7.34
2023-04-09T22:18:43.338Z,7.32
2023-04-09T22:21:09.718Z,7.17
2023-04-09T22:23:36.134Z,7.18
2023-04-09T22:26:02.530Z,7.03
2023-04-09T22:28:29.030Z,7.08
2023-04-09T22:30:55.437Z,7.32
2023-04-09T22:33:21.838Z,6.59
2023-04-09T22:35:49.239Z,7.28
2023-04-09T22:38:15.803Z,7.34
2023-04-09T22:40:42.215Z,7.08
2023-04-09T22:43:08.639Z,6.82
2023-04-09T22:45:35.028Z,7.02
2023-04-09T22:48:01.458Z,6.83
2023-04-09T22:50:27.973Z,6.84
2023-04-09T22:52:54.482Z,7.20
2023-04-09T22:55:20.898Z,6.76
2023-04-09T22:57:47.313Z,6.43
2023-04-09T23:00:13.725Z,6.84
2023-04-09T23:02:40.347Z,6.68
2023-04-09T23:05:06.997Z,7.12
2023-04-09T23:07:33.516Z,6.48
2023-04-09T23:09:59.920Z,7.08
2023-04-09T23:12:26.323Z,6.92
2023-04-09T23:14:52.723Z,6.83
2023-04-09T23:17:19.133Z,6.67
2023-04-09T23:19:45.536Z,7.52
2023-04-09T23:22:11.944Z,7.51
2023-04-09T23:24:38.356Z,7.25
2023-04-09T23:27:04.805Z,6.97
2023-04-09T23:29:31.194Z,7.60
2023-04-09T23:31:57.671Z,7.77
2023-04-09T23:34:24.077Z,7.96
2023-04-09T23:36:50.465Z,7.73
2023-04-09T23:39:16.853Z,8.12
2023-04-09T23:41:45.817Z,8.60
2023-04-09T23:44:12.225Z,8.86
2023-04-09T23:46:38.685Z,8.44
2023-04-09T23:49:05.114Z,8.28
2023-04-09T23:51:31.507Z,8.36
2023-04-09T23:53:57.922Z,8.46
2023-04-09T23:56:24.341Z,8.47
2023-04-09T23:58:50.733Z,8.36
